Time;durP1;ratioP1;P1;durP2;ratioP2;P2;SDS_P1;SDS_P2;PMS_P1;PMS_P2;Temp;Humidity;BMP_temperature;BMP_pressure;BME280_temperature;BME280_humidity;BME280_pressure;Samples;Min_cycle;Max_cycle;Signal;HPM_P1;HPM_P2
2022/07/15 00:00:00;;;;;;;;;;;11.90;99.90;;;;;;5099770;28;19928;-65
2022/07/15 00:02:26;;;;;;;;;;;11.80;99.90;;;;;;5107843;28;19954;-65
2022/07/15 00:04:51;;;;;;;;;;;11.80;99.90;;;;;;5095557;28;19939;-66
2022/07/15 00:07:17;;;;;;;;;;;11.70;99.90;;;;;;5099735;28;19924;-65
2022/07/15 00:12:27;;;;;;;;;;;11.70;99.90;;;;;;5108503;28;19959;-65
2022/07/15 00:14:52;;;;;;;;;;;11.60;99.90;;;;;;5109911;28;19931;-65
2022/07/15 00:17:17;;;;;;;;;;;11.60;99.90;;;;;;5111095;28;20019;-64
2022/07/15 00:19:43;;;;;;;;;;;11.60;99.90;;;;;;5109898;28;19977;-65
2022/07/15 00:22:09;;;;;;;;;;;11.60;99.90;;;;;;5094418;28;20388;-66
2022/07/15 00:24:34;;;;;;;;;;;11.70;99.90;;;;;;5102742;28;19924;-66
2022/07/15 00:27:02;;;;;;;;;;;11.70;99.90;;;;;;5104675;28;19931;-66
2022/07/15 00:29:27;;;;;;;;;;;11.70;99.90;;;;;;5076149;28;20014;-66
2022/07/15 00:31:56;;;;;;;;;;;11.80;99.90;;;;;;5114110;28;20085;-67
2022/07/15 00:34:21;;;;;;;;;;;11.90;99.90;;;;;;5092841;28;20379;-64
2022/07/15 00:36:47;;;;;;;;;;;11.90;99.90;;;;;;5095108;28;19936;-64
2022/07/15 00:39:13;;;;;;;;;;;12.00;99.90;;;;;;5099320;27;19976;-66
2022/07/15 00:41:39;;;;;;;;;;;12.00;99.90;;;;;;5114997;28;19923;-65
2022/07/15 00:44:05;;;;;;;;;;;12.10;99.90;;;;;;5112028;28;20014;-66
2022/07/15 00:46:31;;;;;;;;;;;12.10;99.90;;;;;;5108968;28;19950;-66
2022/07/15 00:48:57;;;;;;;;;;;12.20;99.90;;;;;;5109749;28;19931;-66
2022/07/15 00:51:22;;;;;;;;;;;12.20;99.90;;;;;;5096459;28;19923;-67
2022/07/15 00:53:49;;;;;;;;;;;12.30;99.90;;;;;;5114701;28;19930;-67
2022/07/15 00:56:16;;;;;;;;;;;12.30;99.90;;;;;;5098702;28;20281;-66
2022/07/15 00:58:42;;;;;;;;;;;12.40;99.90;;;;;;5070888;28;19928;-65
2022/07/15 01:01:09;;;;;;;;;;;12.40;99.90;;;;;;5108892;28;19974;-66
2022/07/15 01:03:35;;;;;;;;;;;12.40;99.90;;;;;;5099650;28;19924;-65
2022/07/15 01:06:01;;;;;;;;;;;12.40;99.90;;;;;;5111610;28;20044;-65
2022/07/15 01:08:26;;;;;;;;;;;12.50;99.90;;;;;;5104235;28;19924;-65
2022/07/15 01:10:52;;;;;;;;;;;12.50;99.90;;;;;;5112079;28;20022;-65
2022/07/15 01:13:19;;;;;;;;;;;12.50;99.90;;;;;;5107109;28;20367;-65
2022/07/15 01:15:44;;;;;;;;;;;12.50;99.90;;;;;;5086219;28;20283;-66
2022/07/15 01:18:10;;;;;;;;;;;12.50;99.90;;;;;;5099554;28;19931;-66
2022/07/15 01:20:39;;;;;;;;;;;12.60;99.90;;;;;;5097679;28;19931;-66
2022/07/15 01:23:04;;;;;;;;;;;12.60;99.90;;;;;;5107711;28;20360;-65
2022/07/15 01:25:30;;;;;;;;;;;12.60;99.90;;;;;;5077155;28;19934;-65
2022/07/15 01:27:56;;;;;;;;;;;12.60;99.90;;;;;;5093577;28;19924;-65
2022/07/15 01:30:22;;;;;;;;;;;12.70;99.90;;;;;;5106752;28;19923;-66
2022/07/15 01:32:51;;;;;;;;;;;12.70;99.90;;;;;;5095144;28;20015;-66
2022/07/15 01:35:17;;;;;;;;;;;12.80;99.90;;;;;;5104145;28;20002;-64
2022/07/15 01:37:43;;;;;;;;;;;12.80;99.90;;;;;;5101404;28;19990;-65
2022/07/15 01:43:28;;;;;;;;;;;12.90;99.90;;;;;;5105013;28;19963;-68
2022/07/15 01:45:54;;;;;;;;;;;12.90;99.90;;;;;;5085084;28;19972;-64
2022/07/15 01:51:03;;;;;;;;;;;12.90;99.90;;;;;;5093370;28;19924;-65
2022/07/15 01:53:40;;;;;;;;;;;12.90;99.90;;;;;;5101026;28;20261;-68
2022/07/15 01:56:26;;;;;;;;;;;12.90;99.90;;;;;;5076804;28;20309;-72
2022/07/15 02:02:00;;;;;;;;;;;12.90;99.90;;;;;;5113133;28;19923;-66
2022/07/15 02:04:37;;;;;;;;;;;12.90;99.90;;;;;;5094827;28;19924;-67
2022/07/15 02:07:03;;;;;;;;;;;12.90;99.90;;;;;;5108040;28;19935;-68
2022/07/15 02:09:31;;;;;;;;;;;12.90;99.90;;;;;;5104027;28;19942;-69
2022/07/15 02:12:06;;;;;;;;;;;12.80;99.90;;;;;;5108918;28;19928;-68
2022/07/15 02:14:33;;;;;;;;;;;12.80;99.90;;;;;;5079436;28;19920;-66
2022/07/15 02:16:59;;;;;;;;;;;12.80;99.90;;;;;;5090038;28;20307;-65
2022/07/15 02:19:25;;;;;;;;;;;12.80;99.90;;;;;;5110095;28;19919;-65
2022/07/15 02:21:50;;;;;;;;;;;12.80;99.90;;;;;;5117513;28;19923;-66
2022/07/15 02:24:18;;;;;;;;;;;12.80;99.90;;;;;;5115846;28;20064;-65
2022/07/15 02:26:44;;;;;;;;;;;12.70;99.90;;;;;;5080765;28;19924;-66
2022/07/15 02:29:10;;;;;;;;;;;12.70;99.90;;;;;;5112391;28;20376;-66
2022/07/15 02:31:36;;;;;;;;;;;12.80;99.90;;;;;;5117126;28;19924;-65
2022/07/15 02:34:01;;;;;;;;;;;12.70;99.90;;;;;;5097610;28;19963;-66
2022/07/15 02:36:27;;;;;;;;;;;12.70;99.90;;;;;;5102509;28;19931;-66
2022/07/15 02:38:52;;;;;;;;;;;12.60;99.90;;;;;;5098790;28;19924;-65
2022/07/15 02:41:18;;;;;;;;;;;12.60;99.90;;;;;;5117464;28;19981;-65
2022/07/15 02:43:44;;;;;;;;;;;12.60;99.90;;;;;;5115182;28;20398;-65
2022/07/15 02:46:10;;;;;;;;;;;12.50;99.90;;;;;;5115022;28;19994;-64
2022/07/15 02:48:36;;;;;;;;;;;12.50;99.90;;;;;;5116435;28;20364;-65
2022/07/15 02:51:01;;;;;;;;;;;12.50;99.90;;;;;;5096472;28;20367;-65
2022/07/15 02:53:28;;;;;;;;;;;12.40;99.90;;;;;;5115543;28;19924;-65
2022/07/15 02:56:00;;;;;;;;;;;12.30;99.90;;;;;;5112137;28;20248;-65
2022/07/15 02:58:27;;;;;;;;;;;12.20;99.90;;;;;;5117323;28;19928;-65
2022/07/15 03:00:52;;;;;;;;;;;12.20;99.90;;;;;;5106421;28;19924;-65
2022/07/15 03:03:18;;;;;;;;;;;12.20;99.90;;;;;;5092417;28;20272;-65
2022/07/15 03:05:43;;;;;;;;;;;12.10;99.90;;;;;;5117579;28;19979;-65
2022/07/15 03:08:09;;;;;;;;;;;12.00;99.90;;;;;;5096672;28;20416;-66
2022/07/15 03:10:35;;;;;;;;;;;11.90;99.90;;;;;;5116890;28;19931;-66
2022/07/15 03:13:00;;;;;;;;;;;11.90;99.90;;;;;;5111944;28;19928;-66
2022/07/15 03:15:26;;;;;;;;;;;11.90;99.90;;;;;;5098122;28;19945;-65
2022/07/15 03:17:51;;;;;;;;;;;11.80;99.90;;;;;;5113693;28;19949;-65
2022/07/15 03:20:17;;;;;;;;;;;11.80;99.90;;;;;;5116643;28;19954;-65
2022/07/15 03:22:42;;;;;;;;;;;11.70;99.90;;;;;;5096354;28;19930;-66
2022/07/15 03:25:08;;;;;;;;;;;11.70;99.90;;;;;;5112474;28;20277;-66
2022/07/15 03:27:34;;;;;;;;;;;11.60;99.90;;;;;;5096784;28;19924;-65
2022/07/15 03:30:00;;;;;;;;;;;11.60;99.90;;;;;;5113807;28;19981;-65
2022/07/15 03:32:26;;;;;;;;;;;11.60;99.90;;;;;;5116256;28;19935;-65
2022/07/15 03:34:51;;;;;;;;;;;11.60;99.90;;;;;;5092824;28;20303;-65
2022/07/15 03:37:17;;;;;;;;;;;11.60;99.90;;;;;;5090477;28;19985;-65
2022/07/15 03:39:43;;;;;;;;;;;11.50;99.90;;;;;;5115094;28;19992;-65
2022/07/15 03:42:09;;;;;;;;;;;11.50;99.90;;;;;;5095858;28;19924;-66
2022/07/15 03:44:34;;;;;;;;;;;11.50;99.90;;;;;;5117347;27;19924;-65
2022/07/15 03:47:00;;;;;;;;;;;11.40;99.90;;;;;;5114123;28;19924;-66
2022/07/15 03:49:25;;;;;;;;;;;11.40;99.90;;;;;;5113177;28;19994;-66
2022/07/15 03:51:51;;;;;;;;;;;11.40;99.90;;;;;;5116050;28;20324;-66
2022/07/15 03:54:16;;;;;;;;;;;11.40;99.90;;;;;;5113759;28;19924;-66
2022/07/15 03:56:42;;;;;;;;;;;11.40;99.90;;;;;;5111788;28;19931;-66
2022/07/15 03:59:08;;;;;;;;;;;11.40;99.90;;;;;;5096338;28;19924;-66
2022/07/15 04:01:33;;;;;;;;;;;11.60;99.90;;;;;;5113394;28;20002;-65
2022/07/15 04:03:59;;;;;;;;;;;11.40;99.90;;;;;;5106749;28;19977;-66
2022/07/15 04:06:25;;;;;;;;;;;11.40;99.90;;;;;;5083545;28;19986;-66
2022/07/15 04:08:51;;;;;;;;;;;11.40;99.90;;;;;;5114703;28;19927;-66
2022/07/15 04:11:17;;;;;;;;;;;11.40;99.90;;;;;;5097105;28;19931;-66
2022/07/15 04:13:42;;;;;;;;;;;11.40;99.90;;;;;;5106073;28;20011;-66
2022/07/15 04:16:08;;;;;;;;;;;11.30;99.90;;;;;;5093163;28;20353;-66
2022/07/15 04:18:34;;;;;;;;;;;11.30;99.90;;;;;;5101628;28;19924;-66
2022/07/15 04:21:00;;;;;;;;;;;11.30;99.90;;;;;;5097315;28;19938;-65
2022/07/15 04:23:26;;;;;;;;;;;11.30;99.90;;;;;;5113431;28;20007;-65
2022/07/15 04:25:52;;;;;;;;;;;11.40;99.90;;;;;;5107963;28;19945;-66
2022/07/15 04:28:18;;;;;;;;;;;11.40;99.90;;;;;;5093270;28;19938;-65
2022/07/15 04:30:43;;;;;;;;;;;11.40;99.90;;;;;;5096853;28;20013;-66
2022/07/15 04:33:08;;;;;;;;;;;11.50;99.90;;;;;;5123218;27;19981;-65
2022/07/15 04:35:34;;;;;;;;;;;11.40;99.90;;;;;;5112089;28;19924;-66
2022/07/15 04:38:00;;;;;;;;;;;11.50;99.90;;;;;;5109554;28;19935;-65
2022/07/15 04:40:25;;;;;;;;;;;11.50;99.90;;;;;;5093103;28;19975;-66
2022/07/15 04:42:51;;;;;;;;;;;11.60;99.90;;;;;;5113350;28;20005;-66
2022/07/15 04:45:16;;;;;;;;;;;11.60;99.90;;;;;;5089655;28;20014;-66
2022/07/15 04:47:42;;;;;;;;;;;11.60;99.90;;;;;;5102355;28;19997;-66
2022/07/15 04:52:52;;;;;;;;;;;11.70;99.90;;;;;;5093689;28;19983;-66
2022/07/15 04:55:17;;;;;;;;;;;11.80;99.90;;;;;;5094471;28;19970;-66
2022/07/15 04:57:43;;;;;;;;;;;11.80;99.90;;;;;;5105489;28;19923;-66
2022/07/15 05:00:09;;;;;;;;;;;11.90;99.90;;;;;;5114738;28;19924;-65
2022/07/15 05:02:34;;;;;;;;;;;12.00;99.90;;;;;;5093251;28;19928;-65
2022/07/15 05:05:00;;;;;;;;;;;12.10;99.90;;;;;;5111437;28;19924;-66
2022/07/15 05:07:26;;;;;;;;;;;12.30;99.90;;;;;;5107973;28;19993;-66
2022/07/15 05:09:51;;;;;;;;;;;12.50;99.90;;;;;;5096885;28;19923;-66
2022/07/15 05:12:17;;;;;;;;;;;12.70;99.90;;;;;;5092157;28;19924;-66
2022/07/15 05:14:42;;;;;;;;;;;12.80;99.90;;;;;;5106563;28;20010;-66
2022/07/15 05:17:08;;;;;;;;;;;12.90;99.90;;;;;;5111347;28;19982;-66
2022/07/15 05:19:34;;;;;;;;;;;13.10;99.90;;;;;;5110305;28;19924;-66
2022/07/15 05:21:59;;;;;;;;;;;13.20;99.90;;;;;;5088665;28;19924;-66
2022/07/15 05:24:25;;;;;;;;;;;13.20;99.90;;;;;;5066917;28;19936;-66
2022/07/15 05:27:16;;;;;;;;;;;13.20;99.90;;;;;;5099477;28;20424;-67
2022/07/15 05:29:41;;;;;;;;;;;13.30;99.90;;;;;;5080434;28;19959;-66
2022/07/15 05:32:07;;;;;;;;;;;13.30;99.90;;;;;;5094549;28;19928;-66
2022/07/15 05:34:33;;;;;;;;;;;13.30;99.90;;;;;;5086067;28;20382;-67
2022/07/15 05:36:58;;;;;;;;;;;13.30;99.90;;;;;;5089341;28;19931;-66
2022/07/15 05:39:56;;;;;;;;;;;13.40;99.90;;;;;;5085952;28;19970;-65
2022/07/15 05:42:22;;;;;;;;;;;13.40;99.90;;;;;;5071738;28;19932;-65
2022/07/15 05:45:16;;;;;;;;;;;13.50;99.90;;;;;;5078352;28;19974;-67
2022/07/15 05:47:49;;;;;;;;;;;13.40;99.90;;;;;;5081596;28;19932;-66
2022/07/15 05:50:15;;;;;;;;;;;13.50;99.90;;;;;;5047078;28;19936;-65
2022/07/15 05:52:40;;;;;;;;;;;13.60;99.90;;;;;;5052846;28;19925;-65
2022/07/15 05:55:06;;;;;;;;;;;13.60;99.90;;;;;;5052993;28;19925;-65
2022/07/15 05:57:32;;;;;;;;;;;13.60;99.90;;;;;;5052409;28;19924;-64
2022/07/15 05:59:57;;;;;;;;;;;13.70;99.90;;;;;;5055932;28;20130;-65
2022/07/15 06:02:23;;;;;;;;;;;13.70;99.90;;;;;;5061240;28;19925;-66
2022/07/15 06:04:48;;;;;;;;;;;13.80;99.90;;;;;;5085314;28;19925;-66
2022/07/15 06:07:14;;;;;;;;;;;13.90;99.90;;;;;;5051007;28;19925;-65
2022/07/15 06:09:39;;;;;;;;;;;14.70;99.90;;;;;;5068377;28;19924;-65
2022/07/15 06:12:05;;;;;;;;;;;16.00;99.90;;;;;;5058494;28;19978;-65
2022/07/15 06:14:30;;;;;;;;;;;17.30;99.90;;;;;;5059043;28;19935;-64
2022/07/15 06:16:56;;;;;;;;;;;18.50;99.90;;;;;;5071265;28;19932;-65
2022/07/15 06:19:21;;;;;;;;;;;19.20;99.90;;;;;;5054181;28;20020;-66
2022/07/15 06:21:47;;;;;;;;;;;20.10;99.90;;;;;;5053295;28;19925;-66
2022/07/15 06:24:12;;;;;;;;;;;20.70;99.90;;;;;;5053264;28;19932;-66
2022/07/15 06:26:38;;;;;;;;;;;20.80;99.90;;;;;;5068319;28;19968;-66
2022/07/15 06:29:05;;;;;;;;;;;20.70;99.90;;;;;;5063203;28;19924;-65
2022/07/15 06:31:30;;;;;;;;;;;20.70;99.90;;;;;;5073189;28;20004;-65
2022/07/15 06:33:58;;;;;;;;;;;20.90;99.90;;;;;;5072568;28;20068;-66
2022/07/15 06:36:25;;;;;;;;;;;21.10;99.90;;;;;;5055081;28;20042;-65
2022/07/15 06:38:50;;;;;;;;;;;21.50;99.90;;;;;;5055951;28;20400;-65
2022/07/15 06:41:16;;;;;;;;;;;21.30;99.90;;;;;;5061430;28;19925;-65
2022/07/15 06:43:43;;;;;;;;;;;20.60;99.90;;;;;;5088531;28;19944;-65
2022/07/15 06:46:08;;;;;;;;;;;19.90;99.90;;;;;;5089334;28;20376;-66
2022/07/15 06:48:34;;;;;;;;;;;19.20;99.90;;;;;;5091325;28;19924;-66
2022/07/15 06:51:00;;;;;;;;;;;18.80;99.90;;;;;;5077489;28;19952;-66
2022/07/15 06:53:25;;;;;;;;;;;18.50;99.90;;;;;;5071040;28;20430;-66
2022/07/15 06:55:52;;;;;;;;;;;18.20;99.90;;;;;;5071444;28;19928;-65
2022/07/15 06:58:17;;;;;;;;;;;18.10;99.90;;;;;;5072824;28;20281;-66
2022/07/15 07:00:43;;;;;;;;;;;18.00;99.90;;;;;;5105134;28;19925;-66
2022/07/15 07:03:08;;;;;;;;;;;18.00;99.90;;;;;;5072334;28;19928;-65
2022/07/15 07:05:34;;;;;;;;;;;18.10;99.90;;;;;;5074563;28;19924;-65
2022/07/15 07:07:59;;;;;;;;;;;18.20;99.90;;;;;;5075674;28;20333;-67
2022/07/15 07:10:26;;;;;;;;;;;18.10;99.90;;;;;;5076264;28;20026;-66
2022/07/15 07:12:51;;;;;;;;;;;18.20;99.90;;;;;;5075805;28;20014;-66
2022/07/15 07:15:17;;;;;;;;;;;18.20;99.90;;;;;;5076557;28;20368;-65
2022/07/15 07:17:43;;;;;;;;;;;18.30;99.90;;;;;;5075350;28;19983;-65
2022/07/15 07:20:09;;;;;;;;;;;18.40;99.90;;;;;;5075917;28;19951;-66
2022/07/15 07:22:35;;;;;;;;;;;18.50;99.90;;;;;;5074952;28;19925;-66
2022/07/15 07:25:01;;;;;;;;;;;18.60;99.90;;;;;;5075383;28;20318;-66
2022/07/15 07:27:26;;;;;;;;;;;18.70;99.90;;;;;;5108469;28;20021;-65
2022/07/15 07:29:52;;;;;;;;;;;18.60;99.90;;;;;;5075956;28;19931;-65
2022/07/15 07:32:17;;;;;;;;;;;18.70;99.90;;;;;;5074952;28;20034;-66
2022/07/15 07:34:43;;;;;;;;;;;18.70;99.90;;;;;;5108528;28;19925;-67
2022/07/15 07:44:31;;;;;;;;;;;18.70;99.90;;;;;;5057524;28;20400;-67
2022/07/15 07:46:57;;;;;;;;;;;18.60;99.90;;;;;;5068784;28;19932;-65
2022/07/15 07:49:22;;;;;;;;;;;18.40;99.90;;;;;;5075574;28;19924;-67
2022/07/15 07:51:48;;;;;;;;;;;18.40;99.90;;;;;;5057468;28;19954;-64
2022/07/15 07:54:14;;;;;;;;;;;18.20;99.90;;;;;;5106732;28;19924;-67
2022/07/15 07:56:39;;;;;;;;;;;18.20;99.90;;;;;;5087138;28;19980;-65
2022/07/15 07:59:05;;;;;;;;;;;18.50;99.90;;;;;;5101503;28;19963;-65
2022/07/15 08:01:30;;;;;;;;;;;18.50;99.90;;;;;;5106770;28;19924;-66
2022/07/15 08:03:56;;;;;;;;;;;18.80;99.90;;;;;;5094496;28;20015;-66
2022/07/15 08:06:22;;;;;;;;;;;18.90;99.90;;;;;;5095322;28;20000;-67
2022/07/15 08:08:48;;;;;;;;;;;18.90;99.90;;;;;;5102077;28;20003;-65
2022/07/15 08:11:14;;;;;;;;;;;19.10;99.90;;;;;;5113308;28;20014;-69
2022/07/15 08:13:39;;;;;;;;;;;18.90;99.90;;;;;;5115576;28;19935;-66
2022/07/15 08:16:06;;;;;;;;;;;19.20;99.90;;;;;;5115755;28;20014;-66
2022/07/15 08:18:32;;;;;;;;;;;19.40;99.90;;;;;;5115197;28;19997;-66
2022/07/15 08:20:58;;;;;;;;;;;19.70;99.90;;;;;;5115659;28;19931;-67
2022/07/15 08:23:23;;;;;;;;;;;19.70;98.60;;;;;;5110099;28;19924;-67
2022/07/15 08:25:50;;;;;;;;;;;20.00;99.90;;;;;;5102094;28;19924;-66
2022/07/15 08:28:15;;;;;;;;;;;20.10;99.90;;;;;;5097075;28;19955;-67
2022/07/15 08:30:41;;;;;;;;;;;19.90;99.90;;;;;;5113128;28;21081;-67
2022/07/15 08:33:06;;;;;;;;;;;19.60;99.90;;;;;;5096984;28;19930;-67
2022/07/15 08:35:32;;;;;;;;;;;19.30;99.90;;;;;;5115199;28;19969;-66
2022/07/15 08:37:58;;;;;;;;;;;19.30;99.90;;;;;;5115613;28;20276;-67
2022/07/15 08:40:26;;;;;;;;;;;19.30;99.90;;;;;;5095088;28;19930;-68
2022/07/15 08:42:52;;;;;;;;;;;19.50;99.90;;;;;;5093387;28;20058;-68
2022/07/15 08:45:17;;;;;;;;;;;19.80;99.90;;;;;;5094381;28;19924;-67
2022/07/15 08:47:44;;;;;;;;;;;19.90;99.90;;;;;;5094029;28;19924;-67
2022/07/15 08:50:11;;;;;;;;;;;19.90;99.90;;;;;;5096072;28;19928;-67
2022/07/15 08:52:37;;;;;;;;;;;20.00;99.90;;;;;;5114605;28;19931;-66
2022/07/15 08:55:03;;;;;;;;;;;19.80;99.90;;;;;;5096708;28;19924;-67
2022/07/15 08:57:28;;;;;;;;;;;19.70;99.90;;;;;;5110820;28;19989;-67
2022/07/15 08:59:54;;;;;;;;;;;19.70;99.90;;;;;;5093900;28;19936;-67
2022/07/15 09:02:20;;;;;;;;;;;19.70;99.90;;;;;;5075711;28;19924;-66
2022/07/15 09:05:04;;;;;;;;;;;19.90;99.90;;;;;;5094335;28;20028;-65
2022/07/15 09:07:30;;;;;;;;;;;20.30;99.90;;;;;;5093892;28;19924;-65
2022/07/15 09:09:55;;;;;;;;;;;20.30;99.80;;;;;;5076943;28;20265;-64
2022/07/15 09:12:21;;;;;;;;;;;20.10;95.90;;;;;;5082869;28;20019;-65
2022/07/15 09:14:46;;;;;;;;;;;19.80;99.90;;;;;;5111867;28;19946;-65
2022/07/15 09:17:12;;;;;;;;;;;19.80;97.90;;;;;;5114169;28;19924;-65
2022/07/15 09:19:55;;;;;;;;;;;20.10;99.90;;;;;;5095002;28;20284;-65
2022/07/15 09:22:21;;;;;;;;;;;20.20;95.20;;;;;;5084998;28;20000;-66
2022/07/15 09:24:50;;;;;;;;;;;20.20;98.00;;;;;;5113229;28;19985;-65
2022/07/15 09:27:28;;;;;;;;;;;20.30;97.40;;;;;;5107019;28;19924;-67
2022/07/15 09:38:07;;;;;;;;;;;20.00;98.70;;;;;;5114032;28;20004;-66
2022/07/15 09:40:33;;;;;;;;;;;19.80;99.90;;;;;;5075036;28;19924;-67
2022/07/15 09:43:06;;;;;;;;;;;19.80;99.90;;;;;;5075205;28;19988;-66
2022/07/15 09:45:32;;;;;;;;;;;19.70;99.90;;;;;;5093005;28;19924;-66
2022/07/15 09:48:09;;;;;;;;;;;19.60;99.20;;;;;;5084256;28;21284;-66
2022/07/15 09:50:36;;;;;;;;;;;19.60;99.90;;;;;;5095887;28;19934;-65
2022/07/15 09:53:09;;;;;;;;;;;19.60;99.90;;;;;;5095574;28;19934;-65
2022/07/15 09:55:36;;;;;;;;;;;19.70;99.90;;;;;;5095405;28;19984;-66
2022/07/15 09:58:04;;;;;;;;;;;19.90;99.90;;;;;;5113968;28;19923;-65
2022/07/15 10:00:30;;;;;;;;;;;20.10;99.90;;;;;;5103025;28;19931;-66
2022/07/15 10:02:55;;;;;;;;;;;20.20;99.90;;;;;;5092234;28;19923;-65
2022/07/15 10:05:21;;;;;;;;;;;20.20;98.80;;;;;;5093530;28;19924;-65
2022/07/15 10:07:47;;;;;;;;;;;20.40;99.90;;;;;;5093708;28;20370;-66
2022/07/15 10:10:13;;;;;;;;;;;20.50;99.10;;;;;;5075350;28;20011;-65
2022/07/15 10:12:49;;;;;;;;;;;20.60;98.50;;;;;;5096070;28;20416;-65
2022/07/15 10:15:14;;;;;;;;;;;20.70;99.90;;;;;;5074793;28;19966;-65
2022/07/15 10:17:49;;;;;;;;;;;20.80;99.90;;;;;;5091135;28;19975;-66
2022/07/15 10:20:40;;;;;;;;;;;21.00;99.90;;;;;;5080446;28;19930;-67
2022/07/15 10:23:12;;;;;;;;;;;21.20;99.30;;;;;;5092351;28;19924;-66
2022/07/15 10:25:55;;;;;;;;;;;21.30;99.90;;;;;;5098307;28;19927;-65
2022/07/15 10:28:32;;;;;;;;;;;21.50;97.70;;;;;;5120490;28;19928;-64
2022/07/15 10:31:22;;;;;;;;;;;21.40;88.10;;;;;;5090966;28;19924;-64
2022/07/15 10:34:03;;;;;;;;;;;21.30;86.30;;;;;;5083935;28;19927;-66
2022/07/15 10:36:46;;;;;;;;;;;21.30;94.90;;;;;;5102832;28;19942;-65
2022/07/15 10:39:13;;;;;;;;;;;21.10;90.00;;;;;;5115042;28;20382;-67
2022/07/15 10:41:48;;;;;;;;;;;20.80;97.50;;;;;;5117243;28;19963;-65
2022/07/15 10:44:13;;;;;;;;;;;20.50;99.10;;;;;;5117131;28;19927;-64
2022/07/15 10:46:39;;;;;;;;;;;20.30;99.90;;;;;;5098108;28;19925;-64
2022/07/15 10:49:04;;;;;;;;;;;20.20;99.90;;;;;;5114508;28;19924;-63
2022/07/15 10:51:36;;;;;;;;;;;20.10;99.90;;;;;;5091151;28;19951;-65
2022/07/15 10:54:06;;;;;;;;;;;20.10;99.90;;;;;;5095841;28;19985;-64
2022/07/15 10:56:34;;;;;;;;;;;20.10;99.90;;;;;;5098662;28;20356;-64
2022/07/15 10:59:17;;;;;;;;;;;20.10;99.90;;;;;;5081800;28;19924;-65
2022/07/15 11:01:44;;;;;;;;;;;20.20;99.90;;;;;;5098453;28;19919;-65
2022/07/15 11:04:15;;;;;;;;;;;20.40;99.90;;;;;;5078101;28;20287;-64
2022/07/15 11:06:59;;;;;;;;;;;20.50;99.90;;;;;;5081554;28;20000;-65
2022/07/15 11:09:45;;;;;;;;;;;20.80;99.90;;;;;;5114256;28;19988;-66
2022/07/15 11:12:13;;;;;;;;;;;21.10;93.70;;;;;;5071779;28;19927;-65
2022/07/15 11:14:41;;;;;;;;;;;21.10;93.30;;;;;;5061611;28;19932;-66
2022/07/15 11:17:07;;;;;;;;;;;21.10;96.90;;;;;;5082989;28;19959;-65
2022/07/15 11:19:34;;;;;;;;;;;21.10;96.30;;;;;;5101872;28;19970;-66
2022/07/15 11:22:03;;;;;;;;;;;21.10;92.50;;;;;;5108883;27;20376;-66
2022/07/15 11:24:29;;;;;;;;;;;21.10;91.90;;;;;;5088825;28;19920;-64
2022/07/15 11:26:54;;;;;;;;;;;21.10;94.90;;;;;;5111181;28;19930;-64
2022/07/15 11:29:20;;;;;;;;;;;21.10;97.30;;;;;;5111626;28;19974;-64
2022/07/15 11:31:48;;;;;;;;;;;20.90;94.70;;;;;;5094657;28;19920;-66
2022/07/15 11:34:13;;;;;;;;;;;20.70;94.70;;;;;;5061383;28;19920;-65
2022/07/15 11:36:39;;;;;;;;;;;20.60;98.90;;;;;;5095865;28;20003;-66
2022/07/15 11:39:04;;;;;;;;;;;20.80;98.90;;;;;;5095781;28;19920;-65
2022/07/15 11:44:29;;;;;;;;;;;21.10;99.90;;;;;;5095613;28;19924;-64
2022/07/15 11:46:55;;;;;;;;;;;21.40;99.90;;;;;;5095238;28;19939;-66
2022/07/15 11:49:27;;;;;;;;;;;21.70;92.10;;;;;;5095811;28;19925;-65
2022/07/15 11:51:54;;;;;;;;;;;21.90;96.20;;;;;;5094704;28;19931;-65
2022/07/15 11:54:20;;;;;;;;;;;21.90;90.10;;;;;;5095715;28;20287;-66
2022/07/15 11:56:55;;;;;;;;;;;21.90;90.30;;;;;;5111606;28;19924;-66
2022/07/15 11:59:21;;;;;;;;;;;21.80;89.30;;;;;;5099218;28;19930;-65
2022/07/15 12:01:46;;;;;;;;;;;21.80;96.40;;;;;;5115549;28;19924;-65
2022/07/15 12:04:12;;;;;;;;;;;21.80;98.10;;;;;;5097625;28;19931;-64
2022/07/15 12:06:37;;;;;;;;;;;21.70;93.90;;;;;;5097707;28;19924;-65
2022/07/15 12:09:05;;;;;;;;;;;21.70;95.30;;;;;;5109024;28;19932;-65
2022/07/15 12:11:32;;;;;;;;;;;21.60;95.10;;;;;;5095340;28;20018;-65
2022/07/15 12:14:10;;;;;;;;;;;21.40;95.10;;;;;;5098543;28;19949;-66
2022/07/15 12:16:39;;;;;;;;;;;21.50;97.40;;;;;;5097480;28;19924;-66
2022/07/15 12:19:17;;;;;;;;;;;21.40;98.50;;;;;;5077051;28;19928;-66
2022/07/15 12:21:44;;;;;;;;;;;21.30;94.40;;;;;;5094649;28;19931;-66
2022/07/15 12:24:10;;;;;;;;;;;21.30;96.00;;;;;;5095031;28;20319;-66
2022/07/15 12:26:40;;;;;;;;;;;21.30;97.60;;;;;;5094977;28;19975;-66
2022/07/15 12:29:08;;;;;;;;;;;21.40;96.20;;;;;;5096759;28;19924;-66
2022/07/15 12:31:34;;;;;;;;;;;21.50;94.80;;;;;;5094362;28;19975;-64
2022/07/15 12:34:00;;;;;;;;;;;21.60;96.10;;;;;;5058966;28;19928;-66
2022/07/15 12:36:27;;;;;;;;;;;21.70;98.50;;;;;;5095274;28;19967;-66
2022/07/15 12:39:04;;;;;;;;;;;21.80;97.70;;;;;;5094471;28;19946;-64
2022/07/15 12:41:30;;;;;;;;;;;21.80;98.80;;;;;;5093575;28;20016;-66
2022/07/15 12:43:58;;;;;;;;;;;21.70;96.80;;;;;;5090638;28;20055;-65
2022/07/15 12:46:42;;;;;;;;;;;21.50;94.50;;;;;;5059483;28;19928;-64
2022/07/15 12:49:08;;;;;;;;;;;21.30;92.60;;;;;;5109672;28;20299;-65
2022/07/15 12:51:33;;;;;;;;;;;21.20;95.40;;;;;;5094271;28;19928;-66
2022/07/15 12:54:03;;;;;;;;;;;21.20;97.90;;;;;;5074965;28;19920;-65
2022/07/15 12:56:29;;;;;;;;;;;21.10;94.80;;;;;;5098422;28;19989;-65
2022/07/15 12:58:54;;;;;;;;;;;21.10;92.40;;;;;;5113570;28;19927;-66
2022/07/15 13:01:19;;;;;;;;;;;21.10;95.30;;;;;;5066560;28;19924;-65
2022/07/15 13:03:46;;;;;;;;;;;21.30;91.80;;;;;;5076765;28;20311;-66
2022/07/15 13:06:15;;;;;;;;;;;21.30;91.00;;;;;;5099104;28;19928;-65
2022/07/15 13:08:40;;;;;;;;;;;21.30;88.60;;;;;;5072611;28;19931;-65
2022/07/15 13:11:07;;;;;;;;;;;21.30;91.40;;;;;;5111612;28;19923;-66
2022/07/15 13:13:34;;;;;;;;;;;21.30;88.90;;;;;;5099653;28;19989;-66
2022/07/15 13:16:00;;;;;;;;;;;21.30;90.50;;;;;;5101243;28;19924;-65
2022/07/15 13:18:26;;;;;;;;;;;21.50;90.60;;;;;;5105259;28;20009;-65
2022/07/15 13:20:52;;;;;;;;;;;21.60;86.70;;;;;;5076128;28;19963;-66
2022/07/15 13:23:18;;;;;;;;;;;21.80;92.90;;;;;;5074272;28;19924;-66
2022/07/15 13:25:45;;;;;;;;;;;21.80;84.30;;;;;;5107364;27;19924;-66
2022/07/15 13:28:10;;;;;;;;;;;21.90;92.30;;;;;;5093601;28;19930;-65
2022/07/15 13:30:36;;;;;;;;;;;21.90;92.20;;;;;;5092974;28;20378;-66
2022/07/15 13:33:02;;;;;;;;;;;21.90;85.00;;;;;;5074425;28;19971;-66
2022/07/15 13:35:28;;;;;;;;;;;21.80;90.00;;;;;;5075354;28;19982;-65
2022/07/15 13:37:53;;;;;;;;;;;21.80;85.60;;;;;;5109350;28;19978;-66
2022/07/15 13:40:19;;;;;;;;;;;21.60;88.80;;;;;;5093551;28;20000;-65
2022/07/15 13:42:45;;;;;;;;;;;21.40;90.70;;;;;;5092733;28;19931;-66
2022/07/15 13:45:11;;;;;;;;;;;21.10;92.30;;;;;;5092627;28;20288;-66
2022/07/15 13:47:37;;;;;;;;;;;21.00;95.00;;;;;;5092375;28;19933;-66
2022/07/15 13:52:48;;;;;;;;;;;20.70;94.20;;;;;;5093161;28;19928;-66
2022/07/15 13:55:14;;;;;;;;;;;20.60;97.30;;;;;;5090685;28;20448;-66
2022/07/15 13:57:40;;;;;;;;;;;20.50;96.90;;;;;;5074435;28;19957;-66
2022/07/15 14:00:07;;;;;;;;;;;20.40;98.50;;;;;;5092301;28;19931;-65
2022/07/15 14:02:33;;;;;;;;;;;20.40;99.90;;;;;;5092248;28;19928;-64
2022/07/15 14:04:58;;;;;;;;;;;20.30;99.20;;;;;;5091406;28;19924;-64
2022/07/15 14:07:24;;;;;;;;;;;20.30;99.90;;;;;;5090860;28;19947;-64
2022/07/15 14:09:50;;;;;;;;;;;20.30;99.90;;;;;;5091364;28;20294;-66
2022/07/15 14:12:15;;;;;;;;;;;20.20;99.90;;;;;;5090987;28;20304;-64
2022/07/15 14:14:41;;;;;;;;;;;20.30;99.90;;;;;;5095251;28;20040;-64
2022/07/15 14:17:06;;;;;;;;;;;20.30;99.90;;;;;;5079161;28;19924;-65
2022/07/15 14:19:32;;;;;;;;;;;20.30;99.90;;;;;;5095473;28;19931;-64
2022/07/15 14:21:57;;;;;;;;;;;20.20;99.90;;;;;;5077951;28;19924;-65
2022/07/15 14:24:23;;;;;;;;;;;20.20;99.90;;;;;;5091260;28;20291;-66
2022/07/15 14:26:48;;;;;;;;;;;20.20;99.90;;;;;;5094958;28;19944;-64
2022/07/15 14:29:14;;;;;;;;;;;20.20;99.90;;;;;;5094790;28;20291;-65
2022/07/15 14:31:39;;;;;;;;;;;20.10;99.90;;;;;;5077578;28;19924;-65
2022/07/15 14:34:06;;;;;;;;;;;20.20;99.90;;;;;;5077707;28;20015;-65
2022/07/15 14:36:31;;;;;;;;;;;20.30;99.90;;;;;;5094371;28;19995;-65
2022/07/15 14:38:57;;;;;;;;;;;20.30;99.90;;;;;;5097030;28;19963;-64
2022/07/15 14:41:22;;;;;;;;;;;20.50;99.90;;;;;;5093970;28;20006;-65
2022/07/15 14:43:48;;;;;;;;;;;20.50;99.90;;;;;;5077391;28;19925;-65
2022/07/15 14:46:13;;;;;;;;;;;20.60;99.90;;;;;;5092576;28;19977;-65
2022/07/15 14:48:39;;;;;;;;;;;20.60;99.90;;;;;;5094859;28;19924;-64
2022/07/15 14:51:04;;;;;;;;;;;20.90;99.90;;;;;;5094404;28;20399;-65